sensor_id;sensor_type;location;lat;lon;timestamp;P1;durP1;ratioP1;P2;durP2;ratioP2
48765;SDS011;65794;51.836;5.002;2022-12-07T00:00:31;15.85;;;4.50;;
48765;SDS011;65794;51.836;5.002;2022-12-07T00:02:56;10.05;;;3.83;;
48765;SDS011;65794;51.836;5.002;2022-12-07T00:05:22;12.02;;;4.25;;
48765;SDS011;65794;51.836;5.002;2022-12-07T00:07:48;16.98;;;4.22;;
48765;SDS011;65794;51.836;5.002;2022-12-07T00:10:14;16.75;;;4.95;;
48765;SDS011;65794;51.836;5.002;2022-12-07T00:12:40;11.57;;;4.50;;
48765;SDS011;65794;51.836;5.002;2022-12-07T00:15:06;14.73;;;4.45;;
48765;SDS011;65794;51.836;5.002;2022-12-07T00:17:32;12.35;;;4.28;;
48765;SDS011;65794;51.836;5.002;2022-12-07T00:19:59;16.00;;;5.03;;
48765;SDS011;65794;51.836;5.002;2022-12-07T00:22:24;16.13;;;4.65;;
48765;SDS011;65794;51.836;5.002;2022-12-07T00:24:50;15.45;;;4.35;;
48765;SDS011;65794;51.836;5.002;2022-12-07T00:27:16;11.82;;;4.38;;
48765;SDS011;65794;51.836;5.002;2022-12-07T00:29:41;9.35;;;3.65;;
48765;SDS011;65794;51.836;5.002;2022-12-07T00:32:07;9.23;;;3.17;;
48765;SDS011;65794;51.836;5.002;2022-12-07T00:34:33;13.95;;;3.65;;
48765;SDS011;65794;51.836;5.002;2022-12-07T00:36:59;9.25;;;2.78;;
48765;SDS011;65794;51.836;5.002;2022-12-07T00:39:24;20.42;;;3.25;;
48765;SDS011;65794;51.836;5.002;2022-12-07T00:41:50;14.70;;;3.33;;
48765;SDS011;65794;51.836;5.002;2022-12-07T00:44:16;10.02;;;3.17;;
48765;SDS011;65794;51.836;5.002;2022-12-07T00:46:42;7.13;;;3.15;;
48765;SDS011;65794;51.836;5.002;2022-12-07T00:49:07;11.77;;;3.53;;
48765;SDS011;65794;51.836;5.002;2022-12-07T00:51:33;7.97;;;3.03;;
48765;SDS011;65794;51.836;5.002;2022-12-07T00:53:59;13.48;;;3.63;;
48765;SDS011;65794;51.836;5.002;2022-12-07T00:56:26;9.18;;;2.90;;
48765;SDS011;65794;51.836;5.002;2022-12-07T01:01:17;8.52;;;3.05;;
48765;SDS011;65794;51.836;5.002;2022-12-07T01:03:43;13.52;;;3.88;;
48765;SDS011;65794;51.836;5.002;2022-12-07T01:06:09;15.23;;;4.20;;
48765;SDS011;65794;51.836;5.002;2022-12-07T01:08:34;10.40;;;3.80;;
48765;SDS011;65794;51.836;5.002;2022-12-07T01:11:01;15.68;;;3.08;;
48765;SDS011;65794;51.836;5.002;2022-12-07T01:13:28;12.25;;;3.17;;
48765;SDS011;65794;51.836;5.002;2022-12-07T01:15:56;10.18;;;2.83;;
48765;SDS011;65794;51.836;5.002;2022-12-07T01:18:22;9.60;;;2.42;;
48765;SDS011;65794;51.836;5.002;2022-12-07T01:20:56;4.75;;;1.95;;
48765;SDS011;65794;51.836;5.002;2022-12-07T01:23:22;10.02;;;2.60;;
48765;SDS011;65794;51.836;5.002;2022-12-07T01:25:55;9.60;;;2.25;;
48765;SDS011;65794;51.836;5.002;2022-12-07T01:28:20;8.57;;;2.63;;
48765;SDS011;65794;51.836;5.002;2022-12-07T01:30:54;10.95;;;3.08;;
48765;SDS011;65794;51.836;5.002;2022-12-07T01:33:20;8.82;;;2.55;;
48765;SDS011;65794;51.836;5.002;2022-12-07T01:35:45;11.07;;;2.10;;
48765;SDS011;65794;51.836;5.002;2022-12-07T01:38:11;8.63;;;2.13;;
48765;SDS011;65794;51.836;5.002;2022-12-07T01:40:37;8.88;;;2.30;;
48765;SDS011;65794;51.836;5.002;2022-12-07T01:43:04;8.60;;;2.30;;
48765;SDS011;65794;51.836;5.002;2022-12-07T01:45:36;7.60;;;1.88;;
48765;SDS011;65794;51.836;5.002;2022-12-07T01:48:02;5.82;;;1.73;;
48765;SDS011;65794;51.836;5.002;2022-12-07T01:50:29;9.52;;;2.17;;
48765;SDS011;65794;51.836;5.002;2022-12-07T01:52:58;11.20;;;2.05;;
48765;SDS011;65794;51.836;5.002;2022-12-07T01:55:25;6.97;;;1.67;;
48765;SDS011;65794;51.836;5.002;2022-12-07T01:57:52;6.70;;;1.65;;
48765;SDS011;65794;51.836;5.002;2022-12-07T02:00:18;7.47;;;1.83;;
48765;SDS011;65794;51.836;5.002;2022-12-07T02:02:52;12.32;;;2.08;;
48765;SDS011;65794;51.836;5.002;2022-12-07T02:05:19;6.70;;;1.88;;
48765;SDS011;65794;51.836;5.002;2022-12-07T02:07:45;6.75;;;1.58;;
48765;SDS011;65794;51.836;5.002;2022-12-07T02:10:16;7.05;;;1.60;;
48765;SDS011;65794;51.836;5.002;2022-12-07T02:12:42;7.03;;;1.50;;
48765;SDS011;65794;51.836;5.002;2022-12-07T02:15:10;4.70;;;1.40;;
48765;SDS011;65794;51.836;5.002;2022-12-07T02:17:38;8.13;;;1.63;;
48765;SDS011;65794;51.836;5.002;2022-12-07T02:23:00;3.83;;;1.20;;
48765;SDS011;65794;51.836;5.002;2022-12-07T02:28:07;5.60;;;1.10;;
48765;SDS011;65794;51.836;5.002;2022-12-07T02:30:40;11.20;;;1.58;;
48765;SDS011;65794;51.836;5.002;2022-12-07T02:33:08;12.07;;;1.35;;
48765;SDS011;65794;51.836;5.002;2022-12-07T02:35:39;7.10;;;1.23;;
48765;SDS011;65794;51.836;5.002;2022-12-07T02:45:41;7.70;;;1.10;;
48765;SDS011;65794;51.836;5.002;2022-12-07T02:48:08;6.55;;;1.05;;
48765;SDS011;65794;51.836;5.002;2022-12-07T02:50:34;5.40;;;0.90;;
48765;SDS011;65794;51.836;5.002;2022-12-07T02:53:03;9.25;;;1.50;;
48765;SDS011;65794;51.836;5.002;2022-12-07T02:55:30;16.15;;;1.10;;
48765;SDS011;65794;51.836;5.002;2022-12-07T02:58:10;5.68;;;0.82;;
48765;SDS011;65794;51.836;5.002;2022-12-07T03:00:49;10.75;;;1.23;;
48765;SDS011;65794;51.836;5.002;2022-12-07T03:03:17;8.40;;;1.23;;
48765;SDS011;65794;51.836;5.002;2022-12-07T03:05:54;8.98;;;1.40;;
48765;SDS011;65794;51.836;5.002;2022-12-07T03:08:29;10.18;;;1.20;;
48765;SDS011;65794;51.836;5.002;2022-12-07T03:14:02;5.95;;;1.02;;
48765;SDS011;65794;51.836;5.002;2022-12-07T03:16:33;6.72;;;1.42;;
48765;SDS011;65794;51.836;5.002;2022-12-07T03:21:31;10.15;;;1.25;;
48765;SDS011;65794;51.836;5.002;2022-12-07T03:23:58;16.77;;;1.50;;
48765;SDS011;65794;51.836;5.002;2022-12-07T03:26:31;4.80;;;1.25;;
48765;SDS011;65794;51.836;5.002;2022-12-07T03:28:58;8.68;;;1.08;;
48765;SDS011;65794;51.836;5.002;2022-12-07T03:31:26;7.43;;;1.08;;
48765;SDS011;65794;51.836;5.002;2022-12-07T03:33:58;9.48;;;1.25;;
48765;SDS011;65794;51.836;5.002;2022-12-07T03:36:29;5.25;;;0.68;;
48765;SDS011;65794;51.836;5.002;2022-12-07T03:41:27;3.92;;;0.65;;
48765;SDS011;65794;51.836;5.002;2022-12-07T03:43:54;9.80;;;1.20;;
48765;SDS011;65794;51.836;5.002;2022-12-07T03:53:48;9.98;;;1.42;;
48765;SDS011;65794;51.836;5.002;2022-12-07T03:56:16;8.30;;;0.80;;
48765;SDS011;65794;51.836;5.002;2022-12-07T03:58:43;12.38;;;1.38;;
48765;SDS011;65794;51.836;5.002;2022-12-07T04:01:09;10.73;;;1.33;;
48765;SDS011;65794;51.836;5.002;2022-12-07T04:03:35;6.93;;;1.10;;
48765;SDS011;65794;51.836;5.002;2022-12-07T04:06:01;9.98;;;1.70;;
48765;SDS011;65794;51.836;5.002;2022-12-07T04:08:27;6.47;;;0.93;;
48765;SDS011;65794;51.836;5.002;2022-12-07T04:10:53;8.73;;;0.80;;
48765;SDS011;65794;51.836;5.002;2022-12-07T04:13:19;7.28;;;1.10;;
48765;SDS011;65794;51.836;5.002;2022-12-07T04:15:44;5.57;;;1.10;;
48765;SDS011;65794;51.836;5.002;2022-12-07T04:18:10;5.15;;;1.08;;
48765;SDS011;65794;51.836;5.002;2022-12-07T04:20:36;6.75;;;1.08;;
48765;SDS011;65794;51.836;5.002;2022-12-07T04:23:02;9.85;;;1.33;;
48765;SDS011;65794;51.836;5.002;2022-12-07T04:25:27;6.78;;;1.70;;
48765;SDS011;65794;51.836;5.002;2022-12-07T04:27:53;10.48;;;1.63;;
48765;SDS011;65794;51.836;5.002;2022-12-07T04:30:19;6.80;;;1.63;;
48765;SDS011;65794;51.836;5.002;2022-12-07T04:32:45;13.20;;;1.80;;
48765;SDS011;65794;51.836;5.002;2022-12-07T04:35:10;14.15;;;1.75;;
48765;SDS011;65794;51.836;5.002;2022-12-07T04:37:36;16.15;;;1.27;;
48765;SDS011;65794;51.836;5.002;2022-12-07T04:40:05;9.02;;;1.63;;
48765;SDS011;65794;51.836;5.002;2022-12-07T04:42:31;8.20;;;1.30;;
48765;SDS011;65794;51.836;5.002;2022-12-07T04:44:56;7.93;;;1.13;;
48765;SDS011;65794;51.836;5.002;2022-12-07T04:47:22;8.98;;;1.30;;
48765;SDS011;65794;51.836;5.002;2022-12-07T04:49:48;11.57;;;1.52;;
48765;SDS011;65794;51.836;5.002;2022-12-07T04:52:13;11.75;;;1.33;;
48765;SDS011;65794;51.836;5.002;2022-12-07T04:54:39;6.65;;;1.13;;
48765;SDS011;65794;51.836;5.002;2022-12-07T04:57:05;5.93;;;1.20;;
48765;SDS011;65794;51.836;5.002;2022-12-07T04:59:31;3.90;;;0.80;;
48765;SDS011;65794;51.836;5.002;2022-12-07T05:01:56;7.72;;;1.35;;
48765;SDS011;65794;51.836;5.002;2022-12-07T05:04:22;4.40;;;0.90;;
48765;SDS011;65794;51.836;5.002;2022-12-07T05:06:48;5.75;;;0.93;;
48765;SDS011;65794;51.836;5.002;2022-12-07T05:09:13;6.75;;;1.13;;
48765;SDS011;65794;51.836;5.002;2022-12-07T05:11:39;6.13;;;1.27;;
48765;SDS011;65794;51.836;5.002;2022-12-07T05:14:06;5.50;;;1.02;;
48765;SDS011;65794;51.836;5.002;2022-12-07T05:16:33;14.30;;;1.50;;
48765;SDS011;65794;51.836;5.002;2022-12-07T05:18:58;13.32;;;1.23;;
48765;SDS011;65794;51.836;5.002;2022-12-07T05:21:24;9.13;;;1.23;;
48765;SDS011;65794;51.836;5.002;2022-12-07T05:23:50;6.72;;;1.17;;
48765;SDS011;65794;51.836;5.002;2022-12-07T05:26:16;10.52;;;1.10;;
48765;SDS011;65794;51.836;5.002;2022-12-07T05:28:42;6.57;;;1.05;;
48765;SDS011;65794;51.836;5.002;2022-12-07T05:33:33;7.00;;;1.23;;
48765;SDS011;65794;51.836;5.002;2022-12-07T05:35:59;9.15;;;1.08;;
48765;SDS011;65794;51.836;5.002;2022-12-07T05:38:31;7.93;;;0.90;;
48765;SDS011;65794;51.836;5.002;2022-12-07T05:41:04;5.85;;;0.90;;
48765;SDS011;65794;51.836;5.002;2022-12-07T05:43:30;16.92;;;1.48;;
48765;SDS011;65794;51.836;5.002;2022-12-07T05:45:56;9.02;;;1.70;;
48765;SDS011;65794;51.836;5.002;2022-12-07T05:48:21;8.45;;;1.10;;
48765;SDS011;65794;51.836;5.002;2022-12-07T05:50:48;8.90;;;1.13;;
48765;SDS011;65794;51.836;5.002;2022-12-07T05:53:14;6.78;;;0.90;;
48765;SDS011;65794;51.836;5.002;2022-12-07T05:55:40;4.43;;;0.88;;
48765;SDS011;65794;51.836;5.002;2022-12-07T05:58:06;8.82;;;1.08;;
48765;SDS011;65794;51.836;5.002;2022-12-07T06:00:50;7.43;;;1.50;;
48765;SDS011;65794;51.836;5.002;2022-12-07T06:03:15;7.78;;;1.10;;
48765;SDS011;65794;51.836;5.002;2022-12-07T06:05:41;5.97;;;1.10;;
48765;SDS011;65794;51.836;5.002;2022-12-07T06:08:07;10.27;;;1.35;;
48765;SDS011;65794;51.836;5.002;2022-12-07T06:12:59;12.63;;;1.33;;
48765;SDS011;65794;51.836;5.002;2022-12-07T06:15:24;8.27;;;1.00;;
48765;SDS011;65794;51.836;5.002;2022-12-07T06:17:50;5.85;;;1.00;;
48765;SDS011;65794;51.836;5.002;2022-12-07T06:20:17;6.63;;;1.48;;
48765;SDS011;65794;51.836;5.002;2022-12-07T06:22:42;9.32;;;1.05;;
48765;SDS011;65794;51.836;5.002;2022-12-07T06:25:08;7.40;;;1.55;;
48765;SDS011;65794;51.836;5.002;2022-12-07T06:27:35;9.80;;;1.35;;
48765;SDS011;65794;51.836;5.002;2022-12-07T06:30:01;5.35;;;0.95;;
48765;SDS011;65794;51.836;5.002;2022-12-07T06:32:32;6.75;;;0.90;;
48765;SDS011;65794;51.836;5.002;2022-12-07T06:34:59;5.45;;;1.08;;
48765;SDS011;65794;51.836;5.002;2022-12-07T06:37:24;5.10;;;1.10;;
48765;SDS011;65794;51.836;5.002;2022-12-07T06:39:50;9.70;;;1.65;;
48765;SDS011;65794;51.836;5.002;2022-12-07T06:42:16;8.50;;;1.73;;
48765;SDS011;65794;51.836;5.002;2022-12-07T06:44:41;6.57;;;0.95;;
48765;SDS011;65794;51.836;5.002;2022-12-07T06:47:08;7.47;;;1.80;;
48765;SDS011;65794;51.836;5.002;2022-12-07T06:49:34;6.55;;;1.00;;
48765;SDS011;65794;51.836;5.002;2022-12-07T06:52:00;15.40;;;1.73;;
48765;SDS011;65794;51.836;5.002;2022-12-07T06:54:26;12.95;;;1.45;;
48765;SDS011;65794;51.836;5.002;2022-12-07T06:56:52;7.28;;;1.40;;
48765;SDS011;65794;51.836;5.002;2022-12-07T06:59:18;8.32;;;1.40;;
48765;SDS011;65794;51.836;5.002;2022-12-07T07:01:44;6.38;;;1.13;;
48765;SDS011;65794;51.836;5.002;2022-12-07T07:04:09;6.43;;;0.93;;
48765;SDS011;65794;51.836;5.002;2022-12-07T07:06:35;7.38;;;1.08;;
48765;SDS011;65794;51.836;5.002;2022-12-07T07:09:01;9.23;;;1.30;;
48765;SDS011;65794;51.836;5.002;2022-12-07T07:11:26;4.70;;;1.10;;
48765;SDS011;65794;51.836;5.002;2022-12-07T07:13:52;8.18;;;1.27;;
48765;SDS011;65794;51.836;5.002;2022-12-07T07:16:19;10.65;;;1.45;;
48765;SDS011;65794;51.836;5.002;2022-12-07T07:18:44;8.90;;;1.35;;
48765;SDS011;65794;51.836;5.002;2022-12-07T07:21:10;4.93;;;0.98;;
48765;SDS011;65794;51.836;5.002;2022-12-07T07:23:36;17.75;;;1.65;;
48765;SDS011;65794;51.836;5.002;2022-12-07T07:26:02;16.98;;;2.17;;
48765;SDS011;65794;51.836;5.002;2022-12-07T07:28:27;10.43;;;1.67;;
48765;SDS011;65794;51.836;5.002;2022-12-07T07:30:53;11.88;;;2.08;;
48765;SDS011;65794;51.836;5.002;2022-12-07T07:33:19;5.43;;;1.50;;
48765;SDS011;65794;51.836;5.002;2022-12-07T07:35:44;6.47;;;1.98;;
48765;SDS011;65794;51.836;5.002;2022-12-07T07:38:10;15.82;;;3.05;;
48765;SDS011;65794;51.836;5.002;2022-12-07T07:40:36;12.35;;;2.80;;
48765;SDS011;65794;51.836;5.002;2022-12-07T07:43:02;11.98;;;2.50;;
48765;SDS011;65794;51.836;5.002;2022-12-07T07:47:53;18.35;;;2.30;;
48765;SDS011;65794;51.836;5.002;2022-12-07T07:50:19;11.70;;;1.73;;
48765;SDS011;65794;51.836;5.002;2022-12-07T07:55:10;9.27;;;1.58;;
48765;SDS011;65794;51.836;5.002;2022-12-07T07:57:37;13.02;;;2.03;;
48765;SDS011;65794;51.836;5.002;2022-12-07T08:00:03;19.60;;;1.52;;
48765;SDS011;65794;51.836;5.002;2022-12-07T08:02:38;14.13;;;1.98;;
48765;SDS011;65794;51.836;5.002;2022-12-07T08:05:04;9.80;;;1.98;;
48765;SDS011;65794;51.836;5.002;2022-12-07T08:07:30;11.80;;;1.63;;
48765;SDS011;65794;51.836;5.002;2022-12-07T08:12:21;17.70;;;1.90;;
48765;SDS011;65794;51.836;5.002;2022-12-07T08:14:47;12.20;;;2.03;;
48765;SDS011;65794;51.836;5.002;2022-12-07T08:17:12;12.55;;;2.13;;
48765;SDS011;65794;51.836;5.002;2022-12-07T08:19:38;14.48;;;2.20;;
48765;SDS011;65794;51.836;5.002;2022-12-07T08:22:04;8.52;;;2.15;;
48765;SDS011;65794;51.836;5.002;2022-12-07T08:24:30;21.08;;;2.85;;
48765;SDS011;65794;51.836;5.002;2022-12-07T08:26:55;10.13;;;2.13;;
48765;SDS011;65794;51.836;5.002;2022-12-07T08:31:47;11.00;;;2.03;;
48765;SDS011;65794;51.836;5.002;2022-12-07T08:34:13;11.55;;;2.53;;
48765;SDS011;65794;51.836;5.002;2022-12-07T08:39:04;17.08;;;3.05;;
48765;SDS011;65794;51.836;5.002;2022-12-07T08:41:31;14.90;;;3.35;;
48765;SDS011;65794;51.836;5.002;2022-12-07T08:43:57;14.98;;;3.20;;
48765;SDS011;65794;51.836;5.002;2022-12-07T08:46:28;20.75;;;3.58;;
48765;SDS011;65794;51.836;5.002;2022-12-07T08:49:01;13.98;;;2.97;;
48765;SDS011;65794;51.836;5.002;2022-12-07T08:51:27;12.70;;;3.95;;
48765;SDS011;65794;51.836;5.002;2022-12-07T08:53:53;20.85;;;3.75;;
48765;SDS011;65794;51.836;5.002;2022-12-07T08:56:19;15.20;;;4.15;;
48765;SDS011;65794;51.836;5.002;2022-12-07T08:58:45;19.55;;;3.97;;
48765;SDS011;65794;51.836;5.002;2022-12-07T09:03:37;13.55;;;3.45;;
48765;SDS011;65794;51.836;5.002;2022-12-07T09:06:02;13.70;;;2.92;;
48765;SDS011;65794;51.836;5.002;2022-12-07T09:08:33;11.80;;;3.05;;
48765;SDS011;65794;51.836;5.002;2022-12-07T09:11:00;10.02;;;3.40;;
48765;SDS011;65794;51.836;5.002;2022-12-07T09:13:26;16.80;;;3.63;;
48765;SDS011;65794;51.836;5.002;2022-12-07T09:15:51;13.60;;;3.42;;
48765;SDS011;65794;51.836;5.002;2022-12-07T09:18:17;14.85;;;3.90;;
48765;SDS011;65794;51.836;5.002;2022-12-07T09:20:43;15.98;;;4.00;;
48765;SDS011;65794;51.836;5.002;2022-12-07T09:23:08;15.07;;;4.03;;
48765;SDS011;65794;51.836;5.002;2022-12-07T09:25:34;16.10;;;3.22;;
48765;SDS011;65794;51.836;5.002;2022-12-07T09:28:00;21.42;;;4.00;;
48765;SDS011;65794;51.836;5.002;2022-12-07T09:30:26;19.20;;;3.75;;
48765;SDS011;65794;51.836;5.002;2022-12-07T09:32:52;15.23;;;3.20;;
48765;SDS011;65794;51.836;5.002;2022-12-07T09:35:18;20.25;;;3.70;;
48765;SDS011;65794;51.836;5.002;2022-12-07T09:37:44;16.60;;;3.70;;
48765;SDS011;65794;51.836;5.002;2022-12-07T09:40:10;13.23;;;3.78;;
48765;SDS011;65794;51.836;5.002;2022-12-07T09:42:36;13.15;;;3.15;;
48765;SDS011;65794;51.836;5.002;2022-12-07T09:45:04;11.40;;;2.67;;
48765;SDS011;65794;51.836;5.002;2022-12-07T09:47:30;16.40;;;2.78;;
48765;SDS011;65794;51.836;5.002;2022-12-07T09:49:59;12.57;;;2.42;;
48765;SDS011;65794;51.836;5.002;2022-12-07T09:52:26;7.93;;;2.85;;
48765;SDS011;65794;51.836;5.002;2022-12-07T09:54:52;12.45;;;2.88;;
48765;SDS011;65794;51.836;5.002;2022-12-07T09:57:25;7.93;;;2.00;;
48765;SDS011;65794;51.836;5.002;2022-12-07T09:59:53;12.02;;;2.83;;
48765;SDS011;65794;51.836;5.002;2022-12-07T10:04:47;19.48;;;3.08;;
48765;SDS011;65794;51.836;5.002;2022-12-07T10:07:13;13.18;;;2.75;;
48765;SDS011;65794;51.836;5.002;2022-12-07T10:09:39;11.45;;;2.60;;
48765;SDS011;65794;51.836;5.002;2022-12-07T10:12:06;12.27;;;2.15;;
48765;SDS011;65794;51.836;5.002;2022-12-07T10:14:33;13.55;;;2.78;;
48765;SDS011;65794;51.836;5.002;2022-12-07T10:16:59;6.25;;;2.30;;
48765;SDS011;65794;51.836;5.002;2022-12-07T10:19:26;5.53;;;1.80;;
48765;SDS011;65794;51.836;5.002;2022-12-07T10:24:33;12.65;;;1.23;;
48765;SDS011;65794;51.836;5.002;2022-12-07T10:26:59;8.73;;;1.50;;
48765;SDS011;65794;51.836;5.002;2022-12-07T10:29:36;5.57;;;1.50;;
48765;SDS011;65794;51.836;5.002;2022-12-07T10:34:28;7.63;;;1.30;;
48765;SDS011;65794;51.836;5.002;2022-12-07T10:37:06;9.52;;;1.65;;
48765;SDS011;65794;51.836;5.002;2022-12-07T10:39:32;9.52;;;1.90;;
48765;SDS011;65794;51.836;5.002;2022-12-07T10:42:09;10.60;;;2.17;;
48765;SDS011;65794;51.836;5.002;2022-12-07T10:44:40;8.98;;;2.00;;
48765;SDS011;65794;51.836;5.002;2022-12-07T10:57:10;12.60;;;2.95;;
48765;SDS011;65794;51.836;5.002;2022-12-07T10:59:48;7.55;;;1.73;;
48765;SDS011;65794;51.836;5.002;2022-12-07T11:07:31;6.25;;;1.48;;
48765;SDS011;65794;51.836;5.002;2022-12-07T11:10:08;6.88;;;1.45;;
48765;SDS011;65794;51.836;5.002;2022-12-07T11:12:54;6.95;;;1.60;;
48765;SDS011;65794;51.836;5.002;2022-12-07T11:36:56;6.18;;;1.00;;
48765;SDS011;65794;51.836;5.002;2022-12-07T11:41:49;6.55;;;0.63;;
48765;SDS011;65794;51.836;5.002;2022-12-07T11:46:54;3.70;;;0.85;;
48765;SDS011;65794;51.836;5.002;2022-12-07T11:49:23;9.38;;;0.90;;
48765;SDS011;65794;51.836;5.002;2022-12-07T11:51:52;6.22;;;1.00;;
48765;SDS011;65794;51.836;5.002;2022-12-07T11:54:21;5.07;;;0.85;;
48765;SDS011;65794;51.836;5.002;2022-12-07T11:56:49;6.78;;;1.13;;
48765;SDS011;65794;51.836;5.002;2022-12-07T11:59:17;8.13;;;1.20;;
48765;SDS011;65794;51.836;5.002;2022-12-07T12:04:32;11.50;;;1.38;;
48765;SDS011;65794;51.836;5.002;2022-12-07T12:06:59;7.30;;;1.20;;
48765;SDS011;65794;51.836;5.002;2022-12-07T12:19:42;4.85;;;0.80;;
48765;SDS011;65794;51.836;5.002;2022-12-07T12:22:20;7.97;;;0.82;;
48765;SDS011;65794;51.836;5.002;2022-12-07T12:27:18;6.93;;;1.30;;
48765;SDS011;65794;51.836;5.002;2022-12-07T12:29:50;8.57;;;1.30;;
48765;SDS011;65794;51.836;5.002;2022-12-07T12:32:18;10.00;;;1.40;;
48765;SDS011;65794;51.836;5.002;2022-12-07T12:37:38;5.88;;;1.13;;
48765;SDS011;65794;51.836;5.002;2022-12-07T12:45:32;7.90;;;1.83;;
48765;SDS011;65794;51.836;5.002;2022-12-07T12:48:01;11.95;;;1.92;;
48765;SDS011;65794;51.836;5.002;2022-12-07T12:50:34;10.48;;;1.70;;
48765;SDS011;65794;51.836;5.002;2022-12-07T12:53:02;5.80;;;1.52;;
48765;SDS011;65794;51.836;5.002;2022-12-07T13:00:45;10.68;;;2.20;;
48765;SDS011;65794;51.836;5.002;2022-12-07T13:03:27;11.98;;;1.42;;
48765;SDS011;65794;51.836;5.002;2022-12-07T13:08:40;2.17;;;0.60;;
48765;SDS011;65794;51.836;5.002;2022-12-07T13:11:16;3.70;;;0.82;;
48765;SDS011;65794;51.836;5.002;2022-12-07T13:13:42;4.20;;;0.77;;
48765;SDS011;65794;51.836;5.002;2022-12-07T13:23:38;3.10;;;0.70;;
48765;SDS011;65794;51.836;5.002;2022-12-07T13:26:09;6.47;;;0.65;;
48765;SDS011;65794;51.836;5.002;2022-12-07T13:28:39;9.38;;;1.00;;
48765;SDS011;65794;51.836;5.002;2022-12-07T13:31:30;3.30;;;0.70;;
48765;SDS011;65794;51.836;5.002;2022-12-07T13:33:52;2.85;;;0.60;;
48765;SDS011;65794;51.836;5.002;2022-12-07T13:36:28;3.47;;;0.60;;
48765;SDS011;65794;51.836;5.002;2022-12-07T13:39:00;7.82;;;0.80;;
48765;SDS011;65794;51.836;5.002;2022-12-07T13:41:35;5.25;;;0.55;;
48765;SDS011;65794;51.836;5.002;2022-12-07T13:44:05;2.97;;;0.60;;
48765;SDS011;65794;51.836;5.002;2022-12-07T13:46:36;8.70;;;0.50;;
48765;SDS011;65794;51.836;5.002;2022-12-07T13:51:34;2.80;;;0.50;;
48765;SDS011;65794;51.836;5.002;2022-12-07T13:54:10;4.97;;;0.50;;
48765;SDS011;65794;51.836;5.002;2022-12-07T13:56:36;1.75;;;0.40;;
48765;SDS011;65794;51.836;5.002;2022-12-07T13:59:05;2.13;;;0.40;;
48765;SDS011;65794;51.836;5.002;2022-12-07T14:01:31;3.67;;;0.50;;
48765;SDS011;65794;51.836;5.002;2022-12-07T14:04:16;6.13;;;0.80;;
48765;SDS011;65794;51.836;5.002;2022-12-07T14:06:51;5.07;;;0.93;;
48765;SDS011;65794;51.836;5.002;2022-12-07T14:09:24;7.00;;;1.27;;
48765;SDS011;65794;51.836;5.002;2022-12-07T14:11:52;6.45;;;0.70;;
48765;SDS011;65794;51.836;5.002;2022-12-07T14:14:19;3.70;;;0.60;;
48765;SDS011;65794;51.836;5.002;2022-12-07T14:16:56;5.18;;;0.50;;
48765;SDS011;65794;51.836;5.002;2022-12-07T14:19:40;2.40;;;0.52;;
48765;SDS011;65794;51.836;5.002;2022-12-07T14:22:17;8.20;;;0.63;;
48765;SDS011;65794;51.836;5.002;2022-12-07T14:24:44;6.45;;;0.63;;
48765;SDS011;65794;51.836;5.002;2022-12-07T14:27:17;4.07;;;0.80;;
48765;SDS011;65794;51.836;5.002;2022-12-07T14:29:43;3.00;;;0.50;;
48765;SDS011;65794;51.836;5.002;2022-12-07T14:34:41;4.20;;;0.55;;
48765;SDS011;65794;51.836;5.002;2022-12-07T14:37:08;5.82;;;0.68;;
48765;SDS011;65794;51.836;5.002;2022-12-07T14:39:34;3.28;;;0.50;;
48765;SDS011;65794;51.836;5.002;2022-12-07T14:42:00;4.60;;;0.70;;
48765;SDS011;65794;51.836;5.002;2022-12-07T14:44:26;5.70;;;0.63;;
48765;SDS011;65794;51.836;5.002;2022-12-07T14:46:51;1.52;;;0.50;;
48765;SDS011;65794;51.836;5.002;2022-12-07T14:49:17;4.78;;;0.75;;
48765;SDS011;65794;51.836;5.002;2022-12-07T14:51:44;1.40;;;0.35;;
48765;SDS011;65794;51.836;5.002;2022-12-07T14:54:12;2.95;;;0.70;;
48765;SDS011;65794;51.836;5.002;2022-12-07T14:56:39;5.20;;;0.50;;
48765;SDS011;65794;51.836;5.002;2022-12-07T14:59:05;3.38;;;0.60;;
48765;SDS011;65794;51.836;5.002;2022-12-07T15:01:30;4.32;;;0.75;;
48765;SDS011;65794;51.836;5.002;2022-12-07T15:03:56;3.92;;;0.80;;
48765;SDS011;65794;51.836;5.002;2022-12-07T15:06:22;5.80;;;0.60;;
48765;SDS011;65794;51.836;5.002;2022-12-07T15:08:47;3.33;;;0.75;;
48765;SDS011;65794;51.836;5.002;2022-12-07T15:11:14;3.72;;;0.73;;
48765;SDS011;65794;51.836;5.002;2022-12-07T15:13:40;7.90;;;1.33;;
48765;SDS011;65794;51.836;5.002;2022-12-07T15:16:24;5.40;;;0.77;;
48765;SDS011;65794;51.836;5.002;2022-12-07T15:18:50;8.35;;;1.50;;
48765;SDS011;65794;51.836;5.002;2022-12-07T15:21:17;14.20;;;3.20;;
48765;SDS011;65794;51.836;5.002;2022-12-07T15:23:42;4.07;;;1.00;;
48765;SDS011;65794;51.836;5.002;2022-12-07T15:26:09;4.50;;;1.23;;
48765;SDS011;65794;51.836;5.002;2022-12-07T15:28:35;4.05;;;1.00;;
48765;SDS011;65794;51.836;5.002;2022-12-07T15:31:01;3.97;;;1.40;;
48765;SDS011;65794;51.836;5.002;2022-12-07T15:33:27;4.95;;;1.50;;
48765;SDS011;65794;51.836;5.002;2022-12-07T15:35:53;5.53;;;1.63;;
48765;SDS011;65794;51.836;5.002;2022-12-07T15:38:18;6.63;;;1.80;;
48765;SDS011;65794;51.836;5.002;2022-12-07T15:40:47;10.48;;;2.95;;
48765;SDS011;65794;51.836;5.002;2022-12-07T15:43:13;8.88;;;2.80;;
48765;SDS011;65794;51.836;5.002;2022-12-07T15:45:57;6.88;;;2.65;;
48765;SDS011;65794;51.836;5.002;2022-12-07T15:48:23;10.35;;;2.40;;
48765;SDS011;65794;51.836;5.002;2022-12-07T15:50:49;12.77;;;3.47;;
48765;SDS011;65794;51.836;5.002;2022-12-07T15:53:14;9.95;;;3.10;;
48765;SDS011;65794;51.836;5.002;2022-12-07T15:55:40;10.48;;;3.60;;
48765;SDS011;65794;51.836;5.002;2022-12-07T15:58:06;10.35;;;2.97;;
48765;SDS011;65794;51.836;5.002;2022-12-07T16:00:32;9.02;;;3.22;;
48765;SDS011;65794;51.836;5.002;2022-12-07T16:02:58;10.20;;;3.33;;
48765;SDS011;65794;51.836;5.002;2022-12-07T16:05:24;6.80;;;2.72;;
48765;SDS011;65794;51.836;5.002;2022-12-07T16:07:50;8.25;;;3.08;;
48765;SDS011;65794;51.836;5.002;2022-12-07T16:10:16;13.07;;;3.60;;
48765;SDS011;65794;51.836;5.002;2022-12-07T16:12:41;8.18;;;3.13;;
48765;SDS011;65794;51.836;5.002;2022-12-07T16:15:07;8.60;;;2.70;;
48765;SDS011;65794;51.836;5.002;2022-12-07T16:17:33;13.05;;;3.58;;
48765;SDS011;65794;51.836;5.002;2022-12-07T16:19:59;16.58;;;3.70;;
48765;SDS011;65794;51.836;5.002;2022-12-07T16:22:24;12.48;;;3.85;;
48765;SDS011;65794;51.836;5.002;2022-12-07T16:24:50;12.98;;;4.43;;
48765;SDS011;65794;51.836;5.002;2022-12-07T16:27:16;15.10;;;4.75;;
48765;SDS011;65794;51.836;5.002;2022-12-07T16:29:41;12.73;;;4.85;;
48765;SDS011;65794;51.836;5.002;2022-12-07T16:32:07;12.10;;;3.17;;
48765;SDS011;65794;51.836;5.002;2022-12-07T16:34:33;9.98;;;3.55;;
48765;SDS011;65794;51.836;5.002;2022-12-07T16:36:58;15.73;;;4.07;;
48765;SDS011;65794;51.836;5.002;2022-12-07T16:39:24;10.57;;;2.30;;
48765;SDS011;65794;51.836;5.002;2022-12-07T16:41:50;12.60;;;2.78;;
48765;SDS011;65794;51.836;5.002;2022-12-07T16:44:16;8.70;;;2.10;;
48765;SDS011;65794;51.836;5.002;2022-12-07T16:46:41;6.40;;;2.10;;
48765;SDS011;65794;51.836;5.002;2022-12-07T16:49:10;8.27;;;1.98;;
48765;SDS011;65794;51.836;5.002;2022-12-07T16:51:36;9.32;;;2.20;;
48765;SDS011;65794;51.836;5.002;2022-12-07T16:54:02;6.43;;;2.95;;
48765;SDS011;65794;51.836;5.002;2022-12-07T16:56:28;24.40;;;3.63;;
48765;SDS011;65794;51.836;5.002;2022-12-07T16:58:54;10.65;;;3.38;;
48765;SDS011;65794;51.836;5.002;2022-12-07T17:01:20;8.60;;;3.95;;
48765;SDS011;65794;51.836;5.002;2022-12-07T17:03:49;22.73;;;6.20;;
48765;SDS011;65794;51.836;5.002;2022-12-07T17:06:16;17.73;;;5.63;;
48765;SDS011;65794;51.836;5.002;2022-12-07T17:08:42;14.55;;;4.30;;